Time;durP1;ratioP1;P1;durP2;ratioP2;P2;SDS_P1;SDS_P2;PMS_P1;PMS_P2;Temp;Humidity;BMP_temperature;BMP_pressure;BME280_temperature;BME280_humidity;BME280_pressure;Samples;Min_cycle;Max_cycle;Signal;HPM_P1;HPM_P2
2023/11/20 00:01:42;;;;;;;47.35;20.95;;;;;;;-8.36;74.15;99371.97;5011564;28;20053;-60
2023/11/20 00:04:08;;;;;;;47.55;20.23;;;;;;;-8.41;75.38;99362.09;5011366;28;20049;-59
2023/11/20 00:06:34;;;;;;;54.22;21.35;;;;;;;-8.39;75.34;99367.91;5011379;28;20042;-59
2023/11/20 00:09:00;;;;;;;48.80;20.60;;;;;;;-8.36;74.42;99371.97;5010339;28;20050;-59
2023/11/20 00:11:27;;;;;;;50.05;19.48;;;;;;;-8.38;74.90;99366.97;5011544;28;20038;-62
2023/11/20 00:13:53;;;;;;;47.70;19.38;;;;;;;-8.39;75.37;99359.41;5011692;28;20550;-60
2023/11/20 00:16:18;;;;;;;41.08;19.55;;;;;;;-8.39;75.52;99354.25;5011971;28;20045;-60
2023/11/20 00:18:44;;;;;;;46.65;21.20;;;;;;;-8.37;75.18;99353.19;5012194;28;20519;-60
2023/11/20 00:21:10;;;;;;;46.85;20.25;;;;;;;-8.38;75.29;99346.41;5011275;28;20502;-63
2023/11/20 00:23:36;;;;;;;55.88;21.92;;;;;;;-8.41;75.93;99353.53;4993975;28;20443;-59
2023/11/20 00:26:02;;;;;;;38.33;17.42;;;;;;;-8.44;75.60;99346.06;5012800;28;20038;-60
2023/11/20 00:28:28;;;;;;;41.13;18.48;;;;;;;-8.48;76.79;99346.31;5012585;28;20065;-60
2023/11/20 00:30:53;;;;;;;42.42;20.25;;;;;;;-8.44;76.32;99338.34;5011288;28;20527;-61
2023/11/20 00:33:20;;;;;;;43.15;19.63;;;;;;;-8.38;76.54;99343.84;4994150;28;20068;-60
2023/11/20 00:35:46;;;;;;;41.15;18.08;;;;;;;-8.34;75.94;99350.38;5012950;28;20536;-60
2023/11/20 00:38:13;;;;;;;38.55;18.30;;;;;;;-8.28;75.66;99339.59;5014873;28;20045;-60
2023/11/20 00:40:41;;;;;;;39.90;18.42;;;;;;;-8.30;75.03;99326.03;5016220;28;20451;-62
2023/11/20 00:43:06;;;;;;;40.92;17.23;;;;;;;-8.22;75.80;99335.75;5016185;28;20045;-60
2023/11/20 00:45:32;;;;;;;38.85;17.05;;;;;;;-8.24;76.08;99328.13;5017560;28;20500;-61
2023/11/20 00:47:58;;;;;;;33.53;14.43;;;;;;;-8.20;74.90;99333.06;4999443;28;20050;-59
2023/11/20 00:50:23;;;;;;;39.05;15.88;;;;;;;-8.20;75.01;99333.88;5017476;28;20492;-59
2023/11/20 00:52:49;;;;;;;37.05;17.17;;;;;;;-8.15;76.00;99333.50;5016002;28;20050;-60
2023/11/20 00:55:16;;;;;;;34.22;15.77;;;;;;;-8.13;75.41;99335.03;5014341;28;20093;-60
2023/11/20 00:57:43;;;;;;;31.98;15.95;;;;;;;-8.09;75.06;99333.03;5014714;28;20049;-60
2023/11/20 01:00:11;;;;;;;31.08;16.17;;;;;;;-8.00;75.81;99333.16;5013234;28;20045;-60
2023/11/20 01:02:38;;;;;;;34.67;17.38;;;;;;;-7.88;75.81;99328.78;4997649;28;20050;-60
2023/11/20 01:05:04;;;;;;;33.97;18.88;;;;;;;-7.80;74.25;99328.16;5013136;28;20033;-59
2023/11/20 01:07:30;;;;;;;39.35;18.02;;;;;;;-7.81;74.84;99321.41;5014502;28;20112;-59
2023/11/20 01:09:56;;;;;;;36.90;18.90;;;;;;;-7.78;74.90;99328.88;5014069;28;20041;-59
2023/11/20 01:12:22;;;;;;;36.65;18.08;;;;;;;-7.78;74.96;99328.88;5014468;28;20073;-60
2023/11/20 01:14:48;;;;;;;36.90;18.40;;;;;;;-7.72;74.65;99328.38;5014349;28;20057;-61
2023/11/20 01:17:16;;;;;;;36.08;18.02;;;;;;;-7.67;74.28;99334.00;5014003;28;20069;-59
2023/11/20 01:19:43;;;;;;;32.67;17.13;;;;;;;-7.56;74.96;99327.97;5013088;28;20065;-60
2023/11/20 01:22:09;;;;;;;34.20;17.50;;;;;;;-7.57;74.33;99329.72;5013532;28;20050;-60
2023/11/20 01:24:36;;;;;;;35.90;18.52;;;;;;;-7.52;73.54;99331.13;4979832;28;20459;-58
2023/11/20 01:27:02;;;;;;;43.05;19.67;;;;;;;-7.56;74.16;99330.53;5012190;28;20038;-60
2023/11/20 01:29:28;;;;;;;36.65;17.50;;;;;;;-7.51;74.08;99323.28;5037266;28;20033;-60
2023/11/20 01:31:54;;;;;;;33.22;18.05;;;;;;;-7.46;73.33;99325.50;5013171;28;20140;-60
2023/11/20 01:34:20;;;;;;;36.05;17.25;;;;;;;-7.41;73.58;99320.75;5013604;28;20326;-59
2023/11/20 01:36:46;;;;;;;33.03;16.30;;;;;;;-7.36;73.14;99328.94;5012327;28;20042;-60
2023/11/20 01:39:13;;;;;;;37.10;16.98;;;;;;;-7.42;72.74;99330.25;5012003;28;20120;-60
2023/11/20 01:41:39;;;;;;;34.38;17.13;;;;;;;-7.38;73.36;99333.38;4995983;28;20052;-60
2023/11/20 01:44:06;;;;;;;32.67;16.33;;;;;;;-7.35;73.04;99339.13;5013335;28;20044;-60
2023/11/20 01:46:32;;;;;;;33.42;16.63;;;;;;;-7.27;72.80;99342.81;5013418;28;20052;-60
2023/11/20 01:48:59;;;;;;;38.72;16.88;;;;;;;-7.20;72.46;99331.09;5011825;28;20090;-59
2023/11/20 01:51:28;;;;;;;31.88;14.32;;;;;;;-7.20;71.89;99339.63;5013313;28;20073;-60
2023/11/20 01:53:55;;;;;;;24.23;12.95;;;;;;;-7.24;72.45;99340.81;5013826;28;20586;-58
2023/11/20 01:56:23;;;;;;;21.92;11.43;;;;;;;-7.30;72.90;99333.59;5012189;28;20045;-59
2023/11/20 01:58:49;;;;;;;30.38;13.80;;;;;;;-7.35;72.55;99344.28;5028789;28;20092;-60
2023/11/20 02:01:15;;;;;;;29.88;15.07;;;;;;;-7.37;73.69;99340.19;5028561;28;20050;-61
2023/11/20 02:03:40;;;;;;;40.30;17.23;;;;;;;-7.36;73.70;99336.66;5013539;28;20050;-60
2023/11/20 02:06:07;;;;;;;30.30;14.57;;;;;;;-7.39;73.55;99340.28;5011880;28;20112;-62
2023/11/20 02:08:33;;;;;;;24.45;12.35;;;;;;;-7.43;73.34;99338.91;5013490;28;20523;-59
2023/11/20 02:11:00;;;;;;;25.63;13.07;;;;;;;-7.43;73.32;99335.53;5011654;28;20050;-60
2023/11/20 02:13:27;;;;;;;27.98;15.07;;;;;;;-7.44;74.12;99332.16;5044895;28;20050;-59
2023/11/20 02:15:53;;;;;;;25.58;13.25;;;;;;;-7.39;73.67;99327.41;5012129;28;20255;-60
2023/11/20 02:18:36;;;;;;;26.67;14.77;;;;;;;-7.35;73.74;99318.53;5028408;28;20069;-60
2023/11/20 02:21:21;;;;;;;27.83;13.52;;;;;;;-7.29;73.64;99322.38;4998372;28;20061;-57
2023/11/20 02:23:47;;;;;;;36.03;14.18;;;;;;;-7.29;73.22;99316.38;5013169;28;20045;-59
2023/11/20 02:26:38;;;;;;;26.85;13.80;;;;;;;-7.36;74.35;99327.16;5012960;28;20037;-61
2023/11/20 02:29:03;;;;;;;;;;;;;;;-7.27;74.40;99328.19;5012234;28;20073;-60
2023/11/20 02:31:30;;;;;;;26.58;13.27;;;;;;;-7.18;73.75;99322.28;5011365;28;20425;-60
2023/11/20 02:33:59;;;;;;;27.15;14.88;;;;;;;-7.16;73.46;99317.81;4995040;28;20058;-59
2023/11/20 02:36:25;;;;;;;31.15;15.40;;;;;;;-7.16;73.48;99333.28;5012871;28;20041;-59
2023/11/20 02:38:51;;;;;;;28.75;15.00;;;;;;;-7.22;74.05;99327.81;5012948;28;20056;-59
2023/11/20 02:41:17;;;;;;;32.28;15.57;;;;;;;-7.19;74.12;99319.84;5011034;28;20037;-60
2023/11/20 02:43:43;;;;;;;29.88;14.68;;;;;;;-7.20;74.30;99319.03;5012810;28;20484;-59
2023/11/20 02:46:09;;;;;;;22.45;12.05;;;;;;;-7.16;73.28;99335.84;5011043;28;20141;-59
2023/11/20 02:48:35;;;;;;;27.27;14.23;;;;;;;-7.15;73.71;99332.31;5012498;28;20053;-59
2023/11/20 02:51:04;;;;;;;26.35;15.13;;;;;;;-7.06;73.77;99325.59;5011070;28;20120;-60
2023/11/20 02:53:30;;;;;;;38.78;15.65;;;;;;;-7.00;74.03;99324.28;5012635;28;20046;-60
2023/11/20 02:55:57;;;;;;;28.25;13.40;;;;;;;-6.97;73.32;99331.75;5012131;28;20034;-61
2023/11/20 02:58:23;;;;;;;30.50;15.20;;;;;;;-6.94;73.23;99340.09;4994834;28;20073;-57
2023/11/20 03:00:49;;;;;;;21.98;10.77;;;;;;;-6.99;73.22;99329.31;5011137;28;20096;-60
2023/11/20 03:03:15;;;;;;;27.45;13.73;;;;;;;-7.02;73.27;99326.19;5011561;28;20092;-60
2023/11/20 03:05:42;;;;;;;29.75;13.85;;;;;;;-7.07;73.92;99333.47;5011181;28;20103;-61
2023/11/20 03:08:08;;;;;;;25.00;12.15;;;;;;;-7.07;73.71;99333.47;5012403;28;20068;-61
2023/11/20 03:10:34;;;;;;;24.58;13.82;;;;;;;-7.11;73.86;99331.16;5012334;28;20504;-61
2023/11/20 03:12:59;;;;;;;25.42;13.82;;;;;;;-7.13;73.76;99330.44;5012130;28;20380;-60
2023/11/20 03:15:25;;;;;;;29.30;13.80;;;;;;;-7.05;73.73;99322.09;5012023;28;20038;-60
2023/11/20 03:17:51;;;;;;;35.25;13.60;;;;;;;-7.01;73.87;99323.47;5012208;28;20073;-60
2023/11/20 03:20:16;;;;;;;26.33;13.25;;;;;;;-7.01;73.27;99322.66;5012089;28;20038;-59
2023/11/20 03:22:42;;;;;;;26.00;14.32;;;;;;;-7.00;73.61;99324.28;5010382;28;20046;-59
2023/11/20 03:25:09;;;;;;;20.88;10.25;;;;;;;-7.04;73.18;99323.72;5010840;28;20121;-59
2023/11/20 03:27:35;;;;;;;27.05;13.60;;;;;;;-7.00;73.30;99334.59;5011995;28;20411;-60
2023/11/20 03:30:00;;;;;;;30.50;14.65;;;;;;;-7.05;72.48;99329.03;5010492;28;20060;-61
2023/11/20 03:32:26;;;;;;;24.77;13.10;;;;;;;-7.08;72.35;99332.66;5010388;28;20426;-60
2023/11/20 03:34:52;;;;;;;25.98;12.48;;;;;;;-7.14;72.90;99341.72;5010619;28;20046;-60
2023/11/20 03:37:17;;;;;;;23.73;11.82;;;;;;;-7.17;72.33;99341.97;5010601;28;20061;-60
2023/11/20 03:39:43;;;;;;;20.23;11.65;;;;;;;-7.05;72.16;99335.00;5010460;28;20519;-61
2023/11/20 03:42:09;;;;;;;25.00;12.55;;;;;;;-7.06;72.34;99338.50;5011690;28;20065;-59
2023/11/20 03:44:34;;;;;;;24.23;13.65;;;;;;;-6.97;71.76;99342.06;5010410;28;20523;-61
2023/11/20 03:47:00;;;;;;;29.42;13.65;;;;;;;-7.05;72.06;99329.03;5011826;28;20069;-59
2023/11/20 03:49:26;;;;;;;23.85;11.95;;;;;;;-6.95;72.35;99346.16;5010377;28;20438;-62
2023/11/20 03:51:51;;;;;;;26.17;12.18;;;;;;;-6.87;71.90;99335.22;5010359;28;20080;-60
2023/11/20 03:54:17;;;;;;;28.63;13.38;;;;;;;-6.96;71.38;99328.25;5009526;28;20392;-60
2023/11/20 03:56:43;;;;;;;24.55;13.13;;;;;;;-6.93;71.71;99325.44;5011733;28;20045;-60
2023/11/20 03:59:09;;;;;;;27.05;12.10;;;;;;;-6.96;71.27;99328.25;5011461;28;20048;-58
2023/11/20 04:01:34;;;;;;;27.17;11.75;;;;;;;-7.04;71.33;99321.16;5010359;28;20053;-60
2023/11/20 04:04:01;;;;;;;26.08;13.40;;;;;;;-7.02;71.75;99313.31;5011567;28;20132;-60
2023/11/20 04:06:27;;;;;;;20.58;10.88;;;;;;;-6.97;71.63;99316.31;5011445;28;20042;-61
2023/11/20 04:08:53;;;;;;;22.30;13.43;;;;;;;-6.95;71.64;99311.84;5011849;28;20096;-61
2023/11/20 04:11:19;;;;;;;17.10;9.93;;;;;;;-7.01;71.53;99315.75;5011162;28;20045;-62
2023/11/20 04:13:44;;;;;;;26.50;13.25;;;;;;;-6.95;71.52;99301.53;5015388;28;20070;-58
2023/11/20 04:16:10;;;;;;;23.63;12.80;;;;;;;-6.95;71.87;99312.66;5014150;28;20522;-62
2023/11/20 04:18:36;;;;;;;24.95;12.80;;;;;;;-6.98;71.88;99304.38;5014178;28;20050;-59
2023/11/20 04:21:03;;;;;;;27.77;13.75;;;;;;;-6.88;72.20;99297.53;4997589;28;20091;-61
2023/11/20 04:23:29;;;;;;;25.13;13.35;;;;;;;-6.81;71.47;99302.97;5013789;28;20057;-60
2023/11/20 04:25:55;;;;;;;23.08;12.93;;;;;;;-6.81;71.71;99298.63;5015229;28;20034;-60
2023/11/20 04:28:20;;;;;;;25.17;13.48;;;;;;;-6.72;71.63;99286.72;5013743;28;20400;-60
2023/11/20 04:30:46;;;;;;;22.48;12.15;;;;;;;-6.74;71.27;99284.28;5014621;28;20061;-62
2023/11/20 04:33:12;;;;;;;30.83;12.35;;;;;;;-6.73;70.91;99270.47;4992966;28;20065;-60
2023/11/20 04:35:38;;;;;;;30.15;12.50;;;;;;;-6.83;71.07;99273.94;4981019;28;20057;-61
2023/11/20 04:38:04;;;;;;;22.42;12.50;;;;;;;-6.91;71.35;99277.97;5014185;28;20045;-60
2023/11/20 04:40:30;;;;;;;21.73;10.98;;;;;;;-6.87;71.40;99283.69;5013268;28;20046;-58
2023/11/20 04:42:56;;;;;;;18.67;11.38;;;;;;;-6.90;71.53;99269.28;5013105;28;20050;-60
2023/11/20 04:45:22;;;;;;;20.98;11.77;;;;;;;-6.98;71.80;99266.53;5013477;28;20045;-61
2023/11/20 04:47:48;;;;;;;27.10;11.82;;;;;;;-6.87;71.68;99257.91;5014235;28;20046;-60
2023/11/20 04:50:13;;;;;;;21.27;11.13;;;;;;;-6.87;71.22;99243.25;5014458;28;20042;-61
2023/11/20 04:52:39;;;;;;;19.42;10.25;;;;;;;-6.84;71.31;99242.19;5013475;28;20420;-58
2023/11/20 04:55:05;;;;;;;20.17;10.10;;;;;;;-6.91;71.60;99246.22;5012613;28;20088;-59
2023/11/20 04:57:31;;;;;;;20.23;10.43;;;;;;;-6.97;71.91;99239.00;5013673;28;20112;-59
2023/11/20 04:59:57;;;;;;;19.50;10.82;;;;;;;-7.00;71.50;99247.00;5012494;28;20034;-62
2023/11/20 05:02:26;;;;;;;19.90;11.15;;;;;;;-7.04;71.75;99240.47;5013709;28;20490;-60
2023/11/20 05:04:52;;;;;;;19.63;10.15;;;;;;;-7.02;71.58;99241.97;5013043;28;20042;-61
2023/11/20 05:07:18;;;;;;;19.63;11.90;;;;;;;-7.06;71.63;99245.75;5013703;28;20100;-60
2023/11/20 05:09:44;;;;;;;24.63;11.30;;;;;;;-6.96;71.23;99238.06;4979652;28;20038;-61
2023/11/20 05:12:10;;;;;;;20.15;11.00;;;;;;;-7.01;70.69;99238.44;5013390;28;20048;-59
2023/11/20 05:14:35;;;;;;;20.13;11.32;;;;;;;-7.12;70.50;99235.94;5013186;28;20045;-61
2023/11/20 05:17:01;;;;;;;17.83;9.70;;;;;;;-7.16;70.69;99232.00;5013539;28;20045;-59
2023/11/20 05:19:27;;;;;;;19.13;10.65;;;;;;;-7.18;71.27;99228.72;5010829;28;20041;-61
2023/11/20 05:21:53;;;;;;;24.13;12.18;;;;;;;-7.17;71.32;99233.78;5011998;28;20064;-64
2023/11/20 05:24:20;;;;;;;20.52;12.05;;;;;;;-7.21;71.29;99236.72;5010889;28;20065;-60
2023/11/20 05:26:45;;;;;;;22.50;9.82;;;;;;;-7.28;70.83;99236.41;5011869;28;20080;-60
2023/11/20 05:29:12;;;;;;;21.63;10.65;;;;;;;-7.30;71.71;99233.16;4995461;28;20088;-59
2023/11/20 05:31:38;;;;;;;15.80;9.07;;;;;;;-7.23;70.96;99233.47;5003131;28;20124;-60
2023/11/20 05:34:03;;;;;;;17.08;9.13;;;;;;;-7.30;71.44;99230.56;4978942;28;20164;-60
2023/11/20 05:36:29;;;;;;;21.92;9.07;;;;;;;-7.34;71.37;99244.66;5013184;28;20057;-62
2023/11/20 05:38:55;;;;;;;17.23;9.93;;;;;;;-7.34;71.12;99248.03;5013277;28;20384;-61
2023/11/20 05:41:21;;;;;;;16.45;8.93;;;;;;;-7.29;71.04;99249.41;5012964;28;20078;-59
2023/11/20 05:43:47;;;;;;;18.17;9.60;;;;;;;-7.35;70.67;99241.25;5009998;28;20100;-59
2023/11/20 05:46:13;;;;;;;14.25;8.88;;;;;;;-7.38;70.99;99249.25;5011567;28;20177;-60
2023/11/20 05:48:40;;;;;;;12.68;7.25;;;;;;;-7.49;71.20;99243.34;4994948;28;20407;-59
2023/11/20 05:51:05;;;;;;;20.45;11.48;;;;;;;-7.43;70.54;99243.66;5012319;28;20037;-63
2023/11/20 05:53:31;;;;;;;18.52;10.02;;;;;;;-7.37;70.57;99226.88;5011764;28;20038;-60
2023/11/20 05:55:57;;;;;;;13.13;7.50;;;;;;;-7.42;70.79;99237.56;5013422;28;20042;-59
2023/11/20 05:58:22;;;;;;;19.80;10.90;;;;;;;-7.37;70.62;99221.72;5011724;28;20136;-58
2023/11/20 06:00:48;;;;;;;22.73;10.63;;;;;;;-7.35;70.75;99212.13;5013282;28;20076;-60
2023/11/20 06:03:14;;;;;;;19.35;11.25;;;;;;;-7.33;70.21;99218.75;5013154;28;20046;-61
2023/11/20 06:05:40;;;;;;;19.50;10.02;;;;;;;-7.40;70.07;99217.66;5011488;28;20038;-61
2023/11/20 06:08:06;;;;;;;18.25;10.25;;;;;;;-7.28;70.58;99218.38;5012943;28;20050;-60
2023/11/20 06:10:32;;;;;;;17.20;10.20;;;;;;;-7.22;70.48;99219.63;5011165;28;20121;-60
2023/11/20 06:12:58;;;;;;;22.75;10.93;;;;;;;-7.25;70.01;99215.56;5013039;28;20646;-59
2023/11/20 06:15:23;;;;;;;11.85;7.65;;;;;;;-7.23;69.33;99220.59;5012520;28;20128;-62
2023/11/20 06:17:49;;;;;;;13.18;7.65;;;;;;;-7.21;69.65;99218.69;5012836;28;20050;-62
2023/11/20 06:20:15;;;;;;;17.40;9.70;;;;;;;-7.19;70.02;99227.13;5012575;28;20046;-61
2023/11/20 06:22:41;;;;;;;24.05;10.82;;;;;;;-7.10;69.75;99232.31;5012798;28;20081;-60
2023/11/20 06:25:08;;;;;;;14.50;7.70;;;;;;;-7.11;69.24;99230.69;5012663;28;20045;-59
2023/11/20 06:27:34;;;;;;;12.48;7.78;;;;;;;-7.13;69.13;99229.97;5012909;28;20416;-62
2023/11/20 06:29:59;;;;;;;20.88;9.93;;;;;;;-7.10;68.90;99222.00;5012084;28;20041;-60
2023/11/20 06:32:25;;;;;;;12.68;7.22;;;;;;;-7.06;68.75;99232.03;5012368;28;20062;-60
2023/11/20 06:34:51;;;;;;;15.90;9.68;;;;;;;-7.04;68.54;99227.59;5011850;28;20046;-61
2023/11/20 06:37:17;;;;;;;18.20;10.13;;;;;;;-6.99;68.86;99233.19;5011202;28;20041;-60
2023/11/20 06:39:43;;;;;;;16.30;8.98;;;;;;;-6.96;68.36;99226.00;4985263;28;20041;-61
2023/11/20 06:42:09;;;;;;;15.45;8.07;;;;;;;-6.88;68.23;99227.94;5003853;28;20049;-60
2023/11/20 06:44:38;;;;;;;12.50;7.97;;;;;;;-6.86;68.29;99223.44;5010305;28;20495;-61
2023/11/20 06:47:07;;;;;;;16.20;8.57;;;;;;;-6.79;68.00;99216.84;5011549;28;20049;-59
2023/11/20 06:49:36;;;;;;;18.48;9.52;;;;;;;-6.77;67.68;99214.13;5007658;28;20038;-61
2023/11/20 06:52:03;;;;;;;16.77;9.18;;;;;;;-6.63;67.61;99222.31;4994250;28;20442;-57
2023/11/20 06:54:29;;;;;;;17.15;8.35;;;;;;;-6.64;67.09;99233.56;5011722;28;20155;-57
2023/11/20 06:56:54;;;;;;;13.82;7.22;;;;;;;-6.65;66.69;99215.66;5011025;28;20050;-59
2023/11/20 06:59:20;;;;;;;11.25;7.90;;;;;;;-6.63;66.46;99217.16;5010350;28;20046;-62
2023/11/20 07:01:46;;;;;;;16.25;8.32;;;;;;;-6.58;67.01;99210.81;4993696;28;20331;-57
2023/11/20 07:04:14;;;;;;;16.70;8.40;;;;;;;-6.60;66.53;99208.34;5009544;28;20038;-61
2023/11/20 07:06:42;;;;;;;17.30;7.80;;;;;;;-6.53;66.88;99212.03;5010675;28;20041;-57
2023/11/20 07:09:13;;;;;;;16.08;8.85;;;;;;;-6.53;66.67;99203.47;4993870;28;20072;-59
2023/11/20 07:11:41;;;;;;;16.58;7.57;;;;;;;-6.67;66.59;99207.25;5011618;28;20092;-62
2023/11/20 07:14:08;;;;;;;16.17;7.40;;;;;;;-6.76;66.47;99214.00;5009163;28;20037;-62
2023/11/20 07:16:36;;;;;;;15.90;8.45;;;;;;;-6.72;67.03;99215.38;5034235;28;20038;-62
2023/11/20 07:19:02;;;;;;;16.50;7.72;;;;;;;-6.66;66.96;99214.03;4887872;28;21048;-62
2023/11/20 07:21:29;;;;;;;11.88;7.55;;;;;;;-6.59;66.83;99209.97;4761736;28;21737;-62
2023/11/20 07:23:57;;;;;;;14.50;8.18;;;;;;;-6.53;66.16;99194.00;4781066;28;21737;-63
2023/11/20 07:26:23;;;;;;;12.15;7.03;;;;;;;-6.47;66.22;99192.63;4784863;28;20514;-62
2023/11/20 07:28:49;;;;;;;14.50;8.68;;;;;;;-6.42;66.20;99196.44;4794594;28;20057;-62
2023/11/20 07:31:25;;;;;;;12.32;7.22;;;;;;;-6.40;65.85;99198.88;4992178;28;20066;-63
2023/11/20 07:33:51;;;;;;;15.13;7.65;;;;;;;-6.34;65.80;99189.81;4996891;28;20056;-58
2023/11/20 07:36:20;;;;;;;11.43;7.65;;;;;;;-6.28;66.17;99181.53;5010175;28;20132;-62
2023/11/20 07:38:47;;;;;;;12.15;8.07;;;;;;;-6.30;66.18;99168.75;5010740;28;20037;-61
2023/11/20 07:41:16;;;;;;;12.25;7.47;;;;;;;-6.38;65.84;99184.09;5011366;28;20132;-60
2023/11/20 07:43:43;;;;;;;11.63;7.57;;;;;;;-6.38;66.27;99175.53;5011021;28;20038;-58
2023/11/20 07:46:09;;;;;;;14.98;7.20;;;;;;;-6.50;66.42;99169.66;4976600;28;20133;-61
2023/11/20 07:48:35;;;;;;;11.00;7.32;;;;;;;-6.50;66.71;99160.19;5009417;28;20129;-58
2023/11/20 07:51:01;;;;;;;12.20;7.05;;;;;;;-6.51;66.73;99165.47;5010968;28;20540;-61
2023/11/20 07:53:27;;;;;;;17.73;7.78;;;;;;;-6.36;66.47;99165.91;5010974;28;20427;-60
2023/11/20 07:55:53;;;;;;;12.65;8.23;;;;;;;-6.21;66.93;99160.19;5010553;28;20057;-59
2023/11/20 07:58:19;;;;;;;13.90;8.30;;;;;;;-6.14;65.54;99160.47;5010863;28;20129;-60
2023/11/20 08:00:45;;;;;;;15.55;8.02;;;;;;;-6.15;65.46;99158.84;5009122;28;20132;-61
2023/11/20 08:03:12;;;;;;;13.65;6.85;;;;;;;-6.19;65.75;99145.41;5010899;28;20046;-61
2023/11/20 08:05:41;;;;;;;15.38;8.30;;;;;;;-6.14;66.35;99146.78;5010226;28;20048;-61
2023/11/20 08:08:09;;;;;;;13.25;8.10;;;;;;;-5.93;65.75;99159.53;4990757;28;20552;-63
2023/11/20 08:10:35;;;;;;;11.68;6.90;;;;;;;-5.90;64.57;99159.22;5006421;28;20232;-62
2023/11/20 08:13:00;;;;;;;13.13;7.75;;;;;;;-5.94;65.45;99148.38;5008913;28;20050;-62
2023/11/20 08:15:26;;;;;;;13.95;7.25;;;;;;;-6.01;65.68;99144.72;5010890;28;20404;-63
2023/11/20 08:17:52;;;;;;;13.30;7.90;;;;;;;-5.92;65.16;99136.09;5009494;28;20049;-61
2023/11/20 08:20:18;;;;;;;12.95;7.72;;;;;;;-5.88;65.21;99131.47;5008999;28;20385;-60
2023/11/20 08:22:44;;;;;;;14.30;7.30;;;;;;;-5.84;65.13;99136.25;5010171;28;20093;-61
2023/11/20 08:25:10;;;;;;;11.27;6.55;;;;;;;-5.72;64.57;99145.44;5009574;28;20037;-61
2023/11/20 08:27:37;;;;;;;11.32;6.82;;;;;;;-5.77;64.92;99124.38;5009099;28;20045;-63
2023/11/20 08:30:05;;;;;;;12.95;7.15;;;;;;;-5.67;64.88;99123.59;5010441;28;20048;-62
2023/11/20 08:32:31;;;;;;;9.93;7.15;;;;;;;-5.67;64.92;99121.00;5010502;28;20061;-61
2023/11/20 08:34:57;;;;;;;16.17;7.15;;;;;;;-5.66;65.34;99120.84;5009063;28;20038;-63
2023/11/20 08:37:22;;;;;;;13.57;7.47;;;;;;;-5.55;65.46;99118.09;5009783;28;20046;-60
2023/11/20 08:39:48;;;;;;;16.25;8.15;;;;;;;-5.45;64.38;99097.38;5009488;28;20034;-61
2023/11/20 08:42:14;;;;;;;9.73;6.57;;;;;;;-5.51;64.88;99096.19;5011219;28;20061;-61
2023/11/20 08:44:39;;;;;;;14.00;7.55;;;;;;;-5.44;64.61;99111.94;5009120;28;20042;-60
2023/11/20 08:47:05;;;;;;;13.73;7.63;;;;;;;-5.34;64.58;99114.50;4992817;28;20038;-60
2023/11/20 08:49:31;;;;;;;12.35;7.45;;;;;;;-5.50;64.82;99108.16;5010678;28;20042;-62
2023/11/20 08:51:57;;;;;;;12.05;6.85;;;;;;;-5.56;64.41;99110.47;5009264;28;20415;-61
2023/11/20 08:54:24;;;;;;;9.65;5.65;;;;;;;-5.61;64.44;99104.94;5008907;28;20104;-62
2023/11/20 08:56:51;;;;;;;9.30;5.60;;;;;;;-5.66;64.26;99101.97;5010768;28;20045;-59
2023/11/20 08:59:18;;;;;;;9.18;6.10;;;;;;;-5.50;64.83;99107.31;5009721;28;20045;-61
2023/11/20 09:01:45;;;;;;;10.38;6.20;;;;;;;-5.54;64.34;99098.25;5035961;28;20046;-59
2023/11/20 09:04:12;;;;;;;17.75;7.15;;;;;;;-5.51;63.66;99111.69;5013377;28;20153;-61
2023/11/20 09:06:37;;;;;;;10.32;5.03;;;;;;;-5.52;63.41;99098.94;5012932;28;20526;-61
2023/11/20 09:09:05;;;;;;;13.40;5.47;;;;;;;-5.57;63.42;99095.94;5012185;28;20038;-61
2023/11/20 09:11:31;;;;;;;10.45;5.60;;;;;;;-5.56;63.98;99094.97;5013363;28;20045;-61
2023/11/20 09:13:57;;;;;;;11.68;6.80;;;;;;;-5.49;64.69;99093.47;5013512;28;20141;-59
2023/11/20 09:16:23;;;;;;;10.43;6.47;;;;;;;-5.34;63.72;99097.22;5012100;28;20038;-59
2023/11/20 09:18:49;;;;;;;11.73;6.55;;;;;;;-5.33;63.47;99096.25;5012140;28;20058;-60
2023/11/20 09:21:15;;;;;;;9.57;6.22;;;;;;;-5.25;63.07;99100.72;5012113;28;20117;-60
2023/11/20 09:23:44;;;;;;;10.90;7.10;;;;;;;-5.19;64.04;99094.16;5013034;28;20129;-59
2023/11/20 09:26:11;;;;;;;15.50;7.90;;;;;;;-5.15;63.53;99091.13;5013303;28;20219;-60
2023/11/20 09:28:40;;;;;;;12.70;7.78;;;;;;;-5.08;63.96;99091.38;5012249;28;20159;-63
2023/11/20 09:31:07;;;;;;;16.43;8.97;;;;;;;-5.02;64.70;99091.63;5011630;28;20129;-60
2023/11/20 09:33:35;;;;;;;15.93;8.57;;;;;;;-4.95;64.17;99080.69;5016842;28;20397;-59
2023/11/20 09:36:01;;;;;;;12.98;8.18;;;;;;;-4.78;62.66;99074.72;5013082;28;20042;-59
2023/11/20 09:38:28;;;;;;;20.20;8.13;;;;;;;-4.61;63.41;99075.72;5011500;28;20046;-59
2023/11/20 09:40:58;;;;;;;9.95;6.25;;;;;;;-4.55;62.58;99076.91;5013246;28;20136;-60
2023/11/20 09:43:27;;;;;;;11.85;6.95;;;;;;;-4.57;62.48;99077.03;5012942;28;20038;-59
2023/11/20 09:45:54;;;;;;;12.00;6.70;;;;;;;-4.57;62.70;99089.97;4978849;28;20037;-60
2023/11/20 09:48:21;;;;;;;11.23;7.63;;;;;;;-4.64;63.05;99091.53;5010226;28;20049;-60
2023/11/20 09:50:48;;;;;;;10.57;6.25;;;;;;;-4.72;63.27;99087.06;5010592;28;20472;-61
2023/11/20 09:53:13;;;;;;;11.57;7.18;;;;;;;-4.70;63.10;99089.53;5031262;28;20041;-59
2023/11/20 09:55:39;;;;;;;10.25;7.07;;;;;;;-4.67;63.22;99086.66;5013264;28;20041;-61
2023/11/20 09:58:06;;;;;;;14.55;7.82;;;;;;;-4.59;63.35;99094.47;5011137;28;20042;-62
2023/11/20 10:00:32;;;;;;;11.88;6.55;;;;;;;-4.67;62.78;99087.44;5000603;28;20042;-63
2023/11/20 10:02:59;;;;;;;12.45;6.72;;;;;;;-4.67;63.67;99089.22;4994329;28;20388;-63
2023/11/20 10:05:30;;;;;;;14.57;7.63;;;;;;;-4.69;64.08;99094.53;5010365;28;20051;-63
2023/11/20 10:07:57;;;;;;;14.45;6.70;;;;;;;-4.60;63.21;99087.66;5010783;28;20093;-63
2023/11/20 10:10:24;;;;;;;10.88;6.60;;;;;;;-4.63;63.26;99075.03;5009820;28;20049;-68
2023/11/20 10:12:51;;;;;;;10.95;6.43;;;;;;;-4.74;63.50;99078.63;5011101;28;20057;-63
2023/11/20 10:15:21;;;;;;;11.57;6.13;;;;;;;-4.88;63.80;99077.38;5010538;28;20049;-62
2023/11/20 10:17:47;;;;;;;13.90;8.15;;;;;;;-4.76;64.55;99080.59;5010736;28;20499;-63
2023/11/20 10:20:15;;;;;;;10.52;6.10;;;;;;;-4.66;63.56;99070.97;4994339;28;20045;-62
2023/11/20 10:22:41;;;;;;;12.25;5.90;;;;;;;-4.68;63.16;99072.06;5011509;28;20132;-63
2023/11/20 10:25:08;;;;;;;12.95;6.90;;;;;;;-4.63;63.42;99068.09;5012115;28;20046;-63
2023/11/20 10:27:36;;;;;;;13.93;7.10;;;;;;;-4.56;63.74;99068.28;5010827;28;20061;-63
2023/11/20 10:30:03;;;;;;;24.35;7.30;;;;;;;-4.53;62.98;99072.38;5011421;28;20038;-63
2023/11/20 10:32:32;;;;;;;12.23;7.40;;;;;;;-4.42;63.00;99064.38;5011329;28;20076;-62
2023/11/20 10:35:14;;;;;;;13.63;6.43;;;;;;;-4.46;63.39;99069.03;5035016;28;20038;-62
2023/11/20 10:38:01;;;;;;;14.85;7.15;;;;;;;-4.45;63.84;99055.13;5010004;28;20056;-63
2023/11/20 10:40:27;;;;;;;12.45;7.18;;;;;;;-4.43;63.51;99061.00;5011158;28;20139;-62
2023/11/20 10:42:53;;;;;;;16.02;7.30;;;;;;;-4.47;63.05;99062.25;5011505;28;20045;-62
2023/11/20 10:45:24;;;;;;;12.65;6.30;;;;;;;-4.53;63.10;99060.25;5011641;28;20045;-64
2023/11/20 10:47:51;;;;;;;8.60;4.78;;;;;;;-4.63;62.81;99049.97;5011156;28;20033;-62
2023/11/20 10:50:21;;;;;;;12.30;6.78;;;;;;;-4.66;63.13;99044.28;5010247;28;20033;-62
2023/11/20 10:52:47;;;;;;;;;;;;;;;-4.61;64.10;99042.09;5010867;28;20072;-63
2023/11/20 10:55:14;;;;;;;11.13;6.18;;;;;;;-4.41;63.68;99033.19;5011966;28;20438;-63
2023/11/20 10:57:40;;;;;;;11.75;6.00;;;;;;;-4.41;63.44;99032.34;4961772;28;20046;-64
2023/11/20 11:00:10;;;;;;;13.80;7.05;;;;;;;-4.42;63.41;99028.97;5011514;28;20046;-63
2023/11/20 11:02:42;;;;;;;8.45;5.55;;;;;;;-4.53;63.13;99034.38;5013073;28;20052;-62
2023/11/20 11:05:10;;;;;;;13.75;8.25;;;;;;;-4.47;63.83;99031.22;5010823;28;20569;-63
2023/11/20 11:07:39;;;;;;;15.20;7.13;;;;;;;-4.38;63.93;99032.91;5007789;28;20448;-63
2023/11/20 11:10:10;;;;;;;8.40;6.72;;;;;;;-4.45;64.10;99026.69;5011388;28;20426;-59
2023/11/20 11:12:42;;;;;;;12.25;7.00;;;;;;;-4.40;63.66;99019.28;5007716;28;20057;-61
2023/11/20 11:15:14;;;;;;;5.53;4.10;;;;;;;-4.45;62.83;99018.09;5009240;28;20049;-62
2023/11/20 11:18:03;;;;;;;10.00;5.53;;;;;;;-4.55;62.50;99013.03;4993210;28;20045;-61
2023/11/20 11:20:49;;;;;;;8.05;4.72;;;;;;;-4.64;62.52;99006.16;5015423;28;20110;-62